Flight Track Log - Related Links

Times and Time Zones

All times are in EDT time to prevent confusion due to time zone crossing. See the AWI3883 flight status page for this flight to view local times or setup timezone preferences in your user account.

Time Position Orientation Groundspeed Altitude Reporting Facility
EDT Latitude Longitude Course Direction KTS MPH feet Rate Location/Type
Tue 05:10:32 PM 43.1089 -76.0922 210° Southwest 150 173 1,100  Level Boston Center
Tue 05:11:09 PM 43.1122 -76.0553 83° East 166 191 2,100 1,918 Climbing Boston Center
Tue 05:12:09 PM 43.0708 -76.0417 166° South 203 234 4,200 1,983 Climbing Boston Center
Tue 05:13:00 PM 42.8979 -76.3444 223° Southwest  Level FlightAware Approximate
Tue 05:13:10 PM 43.0169 -76.0953 216° Southwest 249 287 6,100  Level Boston Center
Tue 05:14:00 PM 42.8303 -76.4288 223° Southwest  Level FlightAware Approximate
Tue 05:14:11 PM 42.9731 -76.1692 231° Southwest 269 310 8,600  Level Boston Center
Tue 05:15:00 PM 42.7562 -76.5008 210° Southwest  Level FlightAware Approximate
Tue 05:15:11 PM 42.9306 -76.2547 236° Southwest 276 318 10,000  Level Boston Center
Tue 05:16:00 PM 42.6804 -76.5598 210° Southwest  Level FlightAware Approximate
Tue 05:17:16 PM 42.8350 -76.4408 235° Southwest 306 352 12,700  Level New York Center
Tue 05:18:18 PM 42.7692 -76.5114 218° Southwest 306 352 14,800 1,966 Climbing New York Center
Tue 05:19:15 PM 42.6914 -76.5694 209° Southwest 312 359 16,600 1,109 Climbing New York Center
Tue 05:20:17 PM 42.6139 -76.6272 209° Southwest 323 372 17,000 197 Climbing New York Center
Tue 05:21:17 PM 42.5339 -76.6878 209° Southwest 329 379 17,000 305 Level New York Center
Tue 05:22:15 PM 42.4536 -76.7506 210° Southwest 329 379 17,600 958 Climbing New York Center
Tue 05:23:16 PM 42.3736 -76.8108 209° Southwest 334 384 18,900 1,328 Climbing New York Center
Tue 05:24:17 PM 42.2911 -76.8761 210° Southwest 339 390 20,300 1,140 Climbing New York Center
Tue 05:25:17 PM 42.2069 -76.9356 208° Southwest 344 396 21,200 793 Climbing New York Center
Tue 05:26:18 PM 42.1086 -76.9431 183° South 344 396 21,900 915 Climbing New York Center
Tue 05:27:15 PM 41.9989 -76.9300 175° South 349 402 23,000 923 Climbing New York Center
Tue 05:28:15 PM 41.9061 -76.9131 172° South 362 417 23,700 496 Climbing New York Center
Tue 05:29:16 PM 41.8047 -76.9008 175° South 368 423 24,000 146 Climbing New York Center
Tue 05:30:18 PM 41.7053 -76.8889 175° South 368 423 24,000  Level New York Center
Tue 05:31:15 PM 41.6083 -76.8744 174° South 363 418 24,000  Level New York Center
Tue 05:32:15 PM 41.5111 -76.8603 174° South 357 411 24,000  Level New York Center
Tue 05:33:16 PM 41.4053 -76.8506 176° South 357 411 24,000 -99 Level New York Center
Tue 05:34:16 PM 41.3039 -76.8358 174° South 357 411 23,800 -843 Descending New York Center
Tue 05:35:17 PM 41.2006 -76.8211 174° South 370 426 22,300 -893 Descending New York Center
Tue 05:36:17 PM 41.1014 -76.8067 174° South 376 433 22,000 -153 Descending New York Center
Tue 05:37:15 PM 41.0042 -76.7925 174° South 364 419 22,000  Level New York Center
Tue 05:38:15 PM 40.9025 -76.7808 175° South 364 419 22,000  Level New York Center
Tue 05:39:16 PM 40.8069 -76.7342 160° South 364 419 22,000  Level New York Center
Tue 05:40:17 PM 40.7142 -76.6739 154° Southeast 370 426 22,000 -454 Level New York Center
Tue 05:41:15 PM 40.6233 -76.6114 152° Southeast 376 433 21,100 -1,373 Descending New York Center
Tue 05:42:15 PM 40.5322 -76.5600 157° South 370 426 19,300 -1,041 Descending New York Center
Tue 05:43:16 PM 40.4483 -76.5694 185° South 331 381 19,000 -149 Descending New York Center
Tue 05:44:16 PM 40.3542 -76.5750 183° South 338 389 19,000  Level New York Center
Tue 05:45:17 PM 40.2497 -76.5828 183° South 348 400 19,000  Level New York Center
Tue 05:46:17 PM 40.1556 -76.5883 183° South 348 400 19,000  Level New York Center
Tue 05:47:17 PM 40.0719 -76.5950 183° South 343 395 19,000  Level New York Center
Tue 05:48:15 PM 39.9694 -76.6028 183° South 343 395 19,000  Level New York Center
Tue 05:49:16 PM 39.8836 -76.6092 183° South 343 395 19,000 -496 Level New York Center
Tue 05:50:16 PM 39.7789 -76.6167 183° South 348 400 18,000 -1,310 Descending New York Center
Tue 05:51:38 PM 39.6500 -76.6333 186° South 328 377 15,900 -1,606 Descending Potomac TRACON
Tue 05:52:38 PM 39.5667 -76.6333 180° South 314 361 14,200 -1,700 Descending Potomac TRACON
Tue 05:53:38 PM 39.4667 -76.6333 180° South 344 396 12,500 -1,100 Descending Potomac TRACON
Tue 05:54:38 PM 39.3667 -76.6500 187° South 350 403 12,000 -350 Descending Potomac TRACON
Tue 05:55:38 PM 39.2833 -76.6500 180° South 342 394 11,800 -800 Descending Potomac TRACON
Tue 05:56:38 PM 39.2000 -76.6667 189° South 273 314 10,400 -900 Descending Potomac TRACON
Tue 05:57:38 PM 39.1500 -76.7167 218° Southwest 264 304 10,000 -300 Descending Potomac TRACON
Tue 05:58:38 PM 39.1333 -76.8000 256° West 255 293 9,800 -1,000 Descending Potomac TRACON
Tue 05:59:38 PM 39.1167 -76.9000 258° West 252 290 8,000 -900 Descending Potomac TRACON
Tue 06:00:38 PM 39.1000 -76.9833 256° West 250 288 8,000 -474 Level Potomac TRACON
Tue 06:01:32 PM 39.0833 -77.0500 252° West 212 244 7,100 -1,053 Descending Potomac TRACON
Tue 06:02:32 PM 39.0833 -77.1167 270° West 219 252 6,000 -793 Descending Potomac TRACON
Tue 06:03:33 PM 39.0833 -77.2000 270° West 183 211 5,500 -887 Descending Potomac TRACON
Tue 06:04:27 PM 39.0667 -77.2500 247° West 158 182 4,300 -1,316 Descending Potomac TRACON
Tue 06:05:27 PM 39.0333 -77.2333 159° South 157 181 3,000 -619 Descending Potomac TRACON
Tue 06:06:33 PM 39.0000 -77.2000 142° Southeast 160 184 3,000 -100 Level Potomac TRACON
Tue 06:07:27 PM 38.9667 -77.1667 142° Southeast 161 185 2,800 -222 Descending Potomac TRACON

Login

Don't have an account? Register now (free) for customized features, flight alerts, and more!